Time;durP1;ratioP1;P1;durP2;ratioP2;P2;SDS_P1;SDS_P2;PMS_P1;PMS_P2;Temp;Humidity;BMP_temperature;BMP_pressure;BME280_temperature;BME280_humidity;BME280_pressure;Samples;Min_cycle;Max_cycle;Signal;HPM_P1;HPM_P2
2022/07/15 00:00:04;;;;;;;;;;;;;;;28.15;37.98;100675.31;105228;1300;62066;-81
2022/07/15 00:02:29;;;;;;;;;;;;;;;28.15;38.01;100675.30;105195;1299;62102;-81
2022/07/15 00:04:55;;;;;;;;;;;;;;;28.14;38.00;100673.90;105224;1300;62084;-81
2022/07/15 00:07:20;;;;;;;;;;;;;;;28.14;38.17;100671.73;105238;1299;62215;-81
2022/07/15 00:12:30;;;;;;;;;;;;;;;28.14;38.00;100671.94;105256;1299;75509;-81
2022/07/15 00:14:55;;;;;;;;;;;;;;;28.14;37.84;100671.98;105215;1299;62112;-81
2022/07/15 00:17:21;;;;;;;;;;;;;;;28.14;38.17;100671.77;105222;1300;62157;-81
2022/07/15 00:19:46;;;;;;;;;;;;;;;28.13;38.08;100672.92;105246;1300;62142;-81
2022/07/15 00:22:12;;;;;;;;;;;;;;;28.14;38.04;100673.08;105268;1301;62097;-81
2022/07/15 00:24:38;;;;;;;;;;;;;;;28.14;38.31;100676.49;105286;1299;62078;-81
2022/07/15 00:27:04;;;;;;;;;;;;;;;28.13;38.21;100673.47;105237;1300;62082;-81
2022/07/15 00:29:29;;;;;;;;;;;;;;;28.13;38.04;100671.30;105136;1301;63268;-81
2022/07/15 00:31:55;;;;;;;;;;;;;;;28.12;38.24;100671.93;105170;1300;62149;-81
2022/07/15 00:34:20;;;;;;;;;;;;;;;28.13;38.24;100673.87;105177;1300;62084;-81
2022/07/15 00:36:46;;;;;;;;;;;;;;;28.13;38.21;100669.91;105275;1299;62206;-81
2022/07/15 00:39:11;;;;;;;;;;;;;;;28.13;38.13;100676.05;105272;1299;61943;-81
2022/07/15 00:41:37;;;;;;;;;;;;;;;28.13;37.96;100675.67;105284;1299;59490;-81
2022/07/15 00:44:03;;;;;;;;;;;;;;;28.12;38.28;100670.31;105196;1300;62079;-81
2022/07/15 00:46:29;;;;;;;;;;;;;;;28.13;38.30;100672.10;105229;1300;62367;-81
2022/07/15 00:48:54;;;;;;;;;;;;;;;28.12;38.06;100671.93;105152;1299;62174;-81
2022/07/15 00:51:19;;;;;;;;;;;;;;;28.12;38.25;100670.34;105227;1300;62082;-81
2022/07/15 00:53:45;;;;;;;;;;;;;;;28.12;38.21;100669.23;105249;1299;62143;-81
2022/07/15 00:56:10;;;;;;;;;;;;;;;28.12;38.10;100668.88;105255;1301;62151;-81
2022/07/15 00:58:36;;;;;;;;;;;;;;;28.12;38.30;100666.89;105231;1299;62158;-81
2022/07/15 01:01:02;;;;;;;;;;;;;;;28.12;38.48;100666.73;105219;1300;62072;-81
2022/07/15 01:03:27;;;;;;;;;;;;;;;28.12;38.18;100667.45;105289;1300;62180;-81
2022/07/15 01:05:53;;;;;;;;;;;;;;;28.12;38.32;100664.57;105238;1300;62056;-81
2022/07/15 01:08:18;;;;;;;;;;;;;;;28.12;38.40;100662.59;105246;1300;62183;-81
2022/07/15 01:10:44;;;;;;;;;;;;;;;28.12;38.28;100662.40;105197;1300;62049;-81
2022/07/15 01:13:10;;;;;;;;;;;;;;;28.12;38.36;100664.05;105283;1299;62414;-81
2022/07/15 01:15:36;;;;;;;;;;;;;;;28.11;38.40;100660.30;105216;1300;62046;-81
2022/07/15 01:18:02;;;;;;;;;;;;;;;28.12;38.36;100660.94;105207;1301;61975;-81
2022/07/15 01:20:28;;;;;;;;;;;;;;;28.12;38.39;100660.60;105311;1299;62056;-81
2022/07/15 01:22:53;;;;;;;;;;;;;;;28.11;38.24;100657.03;105242;1300;62949;-81
2022/07/15 01:25:19;;;;;;;;;;;;;;;28.11;38.40;100654.70;105229;1299;62103;-81
2022/07/15 01:27:44;;;;;;;;;;;;;;;28.11;38.38;100652.36;105241;1300;62971;-81
2022/07/15 01:30:11;;;;;;;;;;;;;;;28.11;38.33;100652.89;105254;1298;59619;-81
2022/07/15 01:32:37;;;;;;;;;;;;;;;28.11;38.59;100650.56;104897;1299;63236;-81
2022/07/15 01:35:02;;;;;;;;;;;;;;;28.11;38.53;100650.55;105245;1301;62034;-81
2022/07/15 01:37:28;;;;;;;;;;;;;;;28.11;38.42;100647.14;105207;1302;61849;-81
2022/07/15 01:39:53;;;;;;;;;;;;;;;28.10;38.32;100643.36;105267;1300;62088;-81
2022/07/15 01:42:19;;;;;;;;;;;;;;;28.10;38.42;100645.36;105190;1299;62039;-81
2022/07/15 01:44:44;;;;;;;;;;;;;;;28.10;38.63;100643.39;105199;1300;62228;-81
2022/07/15 01:47:09;;;;;;;;;;;;;;;28.10;38.76;100643.58;105282;1298;62057;-82
2022/07/15 01:49:35;;;;;;;;;;;;;;;28.10;38.59;100641.94;105216;1299;62095;-81
2022/07/15 01:52:01;;;;;;;;;;;;;;;28.10;38.30;100641.77;105240;1299;62082;-81
2022/07/15 01:54:26;;;;;;;;;;;;;;;28.09;38.53;100642.00;105173;1300;62126;-81
2022/07/15 01:56:52;;;;;;;;;;;;;;;28.10;38.38;100640.16;105200;1299;62145;-81
2022/07/15 01:59:18;;;;;;;;;;;;;;;28.10;38.42;100639.45;105215;1299;62296;-81
2022/07/15 02:01:43;;;;;;;;;;;;;;;28.09;38.37;100640.55;105273;1300;62117;-81
2022/07/15 02:04:09;;;;;;;;;;;;;;;28.09;38.42;100642.58;105234;1299;62033;-81
2022/07/15 02:06:34;;;;;;;;;;;;;;;28.09;38.60;100639.12;105219;1299;62120;-81
2022/07/15 02:09:00;;;;;;;;;;;;;;;28.09;38.69;100635.89;105220;1300;62116;-81
2022/07/15 02:11:25;;;;;;;;;;;;;;;28.09;38.54;100634.26;105253;1300;62050;-81
2022/07/15 02:13:53;;;;;;;;;;;;;;;28.09;38.52;100632.63;105232;1300;62100;-81
2022/07/15 02:16:19;;;;;;;;;;;;;;;28.09;38.70;100635.69;105202;1300;61969;-81
2022/07/15 02:18:44;;;;;;;;;;;;;;;28.09;38.57;100632.66;105202;1299;62106;-81
2022/07/15 02:21:10;;;;;;;;;;;;;;;28.09;38.46;100630.66;105277;1300;62065;-81
2022/07/15 02:23:35;;;;;;;;;;;;;;;28.08;38.69;100632.16;105259;1300;62085;-81
2022/07/15 02:26:01;;;;;;;;;;;;;;;28.08;38.76;100630.69;105281;1299;62145;-81
2022/07/15 02:28:26;;;;;;;;;;;;;;;28.08;38.61;100627.64;105230;1299;62069;-81
2022/07/15 02:30:52;;;;;;;;;;;;;;;28.08;38.45;100629.98;105241;1300;62184;-81
2022/07/15 02:33:17;;;;;;;;;;;;;;;28.08;38.80;100628.93;105253;1300;62068;-81
2022/07/15 02:35:43;;;;;;;;;;;;;;;28.08;38.74;100626.38;105221;1300;62076;-81
2022/07/15 02:38:09;;;;;;;;;;;;;;;28.08;38.59;100624.59;105232;1299;62145;-81
2022/07/15 02:40:34;;;;;;;;;;;;;;;28.08;38.60;100627.30;105231;1302;61957;-81
2022/07/15 02:43:00;;;;;;;;;;;;;;;28.08;38.70;100626.18;105225;1300;62055;-81
2022/07/15 02:45:27;;;;;;;;;;;;;;;28.08;38.64;100627.67;105248;1299;62110;-81
2022/07/15 02:47:52;;;;;;;;;;;;;;;28.08;38.72;100628.42;105212;1299;62105;-81
2022/07/15 02:50:18;;;;;;;;;;;;;;;28.08;38.77;100624.80;105243;1300;63136;-81
2022/07/15 02:52:43;;;;;;;;;;;;;;;28.08;38.95;100624.46;105193;1300;75084;-81
2022/07/15 02:55:09;;;;;;;;;;;;;;;28.08;38.53;100622.84;105197;1299;62167;-81
2022/07/15 02:57:35;;;;;;;;;;;;;;;28.08;38.74;100625.16;105256;1300;62062;-81
2022/07/15 03:00:00;;;;;;;;;;;;;;;28.08;38.70;100626.23;105221;1300;62053;-81
2022/07/15 03:02:26;;;;;;;;;;;;;;;28.08;38.67;100623.54;105264;1299;62111;-81
2022/07/15 03:04:52;;;;;;;;;;;;;;;28.08;38.55;100623.74;105240;1299;72594;-81
2022/07/15 03:07:17;;;;;;;;;;;;;;;28.08;38.79;100625.34;105213;1302;62733;-81
2022/07/15 03:09:43;;;;;;;;;;;;;;;28.08;38.86;100623.17;105286;1299;62030;-81
2022/07/15 03:12:08;;;;;;;;;;;;;;;28.08;38.92;100624.42;105080;1302;62053;-81
2022/07/15 03:14:34;;;;;;;;;;;;;;;28.08;38.78;100625.37;105310;1299;62098;-81
2022/07/15 03:16:59;;;;;;;;;;;;;;;28.08;38.81;100629.16;105218;1300;73800;-81
2022/07/15 03:19:25;;;;;;;;;;;;;;;28.07;38.74;100627.54;105222;1299;62055;-81
2022/07/15 03:21:50;;;;;;;;;;;;;;;28.08;38.63;100628.97;105263;1300;62849;-81
2022/07/15 03:24:16;;;;;;;;;;;;;;;28.08;38.89;100629.71;105244;1300;62126;-81
2022/07/15 03:26:41;;;;;;;;;;;;;;;28.08;38.88;100632.05;105125;1302;62089;-81
2022/07/15 03:29:06;;;;;;;;;;;;;;;28.08;39.09;100633.11;105275;1300;62081;-81
2022/07/15 03:31:32;;;;;;;;;;;;;;;28.08;38.57;100637.45;105276;1301;62183;-81
2022/07/15 03:33:57;;;;;;;;;;;;;;;28.08;38.78;100638.56;105228;1300;62177;-81
2022/07/15 03:36:24;;;;;;;;;;;;;;;28.08;38.92;100641.42;105223;1301;63269;-81
2022/07/15 03:38:51;;;;;;;;;;;;;;;28.08;38.98;100639.08;105142;1300;62084;-81
2022/07/15 03:41:20;;;;;;;;;;;;;;;28.08;39.01;100637.80;105193;1300;62042;-81
2022/07/15 03:43:46;;;;;;;;;;;;;;;28.08;38.99;100639.23;105194;1300;62091;-81
2022/07/15 03:46:13;;;;;;;;;;;;;;;28.08;38.96;100641.92;105214;1302;62061;-81
2022/07/15 03:48:39;;;;;;;;;;;;;;;28.08;38.84;100643.41;105224;1300;72991;-81
2022/07/15 03:51:05;;;;;;;;;;;;;;;28.08;38.88;100650.77;105261;1300;63241;-81
2022/07/15 03:53:30;;;;;;;;;;;;;;;28.08;38.96;100647.55;105305;1299;62158;-81
2022/07/15 03:55:55;;;;;;;;;;;;;;;28.08;39.03;100655.86;105167;1300;62205;-81
2022/07/15 03:58:21;;;;;;;;;;;;;;;28.09;38.99;100657.82;105304;1297;62159;-81
2022/07/15 04:00:46;;;;;;;;;;;;;;;28.08;38.93;100659.29;105267;1300;62065;-81
2022/07/15 04:03:12;;;;;;;;;;;;;;;28.09;38.91;100661.43;105278;1300;62229;-81
2022/07/15 04:05:41;;;;;;;;;;;;;;;28.09;38.90;100660.10;105220;1300;62057;-81
2022/07/15 04:08:07;;;;;;;;;;;;;;;28.08;39.18;100658.74;105279;1299;61919;-81
2022/07/15 04:10:32;;;;;;;;;;;;;;;28.09;39.10;100658.14;105227;1300;62091;-81
2022/07/15 04:12:58;;;;;;;;;;;;;;;28.09;38.81;100658.82;105215;1300;62061;-81
2022/07/15 04:15:24;;;;;;;;;;;;;;;28.10;39.09;100658.61;105110;1302;61970;-81
2022/07/15 04:17:50;;;;;;;;;;;;;;;28.10;38.85;100656.45;105216;1300;62916;-81
2022/07/15 04:20:15;;;;;;;;;;;;;;;28.10;39.12;100658.41;105278;1300;62203;-81
2022/07/15 04:22:41;;;;;;;;;;;;;;;28.11;39.18;100657.10;105217;1300;62298;-81
2022/07/15 04:25:07;;;;;;;;;;;;;;;28.11;39.00;100659.27;105199;1300;62038;-82
2022/07/15 04:27:33;;;;;;;;;;;;;;;28.12;39.01;100664.02;105285;1299;61964;-81
2022/07/15 04:29:58;;;;;;;;;;;;;;;28.12;38.97;100659.67;105264;1299;62106;-81
2022/07/15 04:32:26;;;;;;;;;;;;;;;28.12;39.12;100658.38;105208;1300;62079;-81
2022/07/15 04:34:52;;;;;;;;;;;;;;;28.12;39.00;100660.35;105274;1300;62071;-81
2022/07/15 04:37:17;;;;;;;;;;;;;;;28.13;39.05;100659.91;105260;1300;62186;-81
2022/07/15 04:39:43;;;;;;;;;;;;;;;28.14;39.12;100659.87;105290;1299;62072;-81
2022/07/15 04:42:08;;;;;;;;;;;;;;;28.14;38.85;100663.25;105286;1300;62063;-81
2022/07/15 04:44:34;;;;;;;;;;;;;;;28.15;39.12;100658.83;105217;1300;62052;-81
2022/07/15 04:47:02;;;;;;;;;;;;;;;28.16;38.94;100660.35;105234;1300;62254;-81
2022/07/15 04:52:12;;;;;;;;;;;;;;;28.16;39.04;100653.67;105181;1301;61992;-81
2022/07/15 04:54:37;;;;;;;;;;;;;;;28.17;39.18;100651.34;105268;1300;62066;-81
2022/07/15 04:57:04;;;;;;;;;;;;;;;28.18;39.09;100651.23;105114;1302;62267;-81
2022/07/15 04:59:30;;;;;;;;;;;;;;;28.19;39.04;100653.19;105246;1300;62181;-81
2022/07/15 05:01:55;;;;;;;;;;;;;;;28.19;38.88;100654.34;105192;1300;62089;-82
2022/07/15 05:04:21;;;;;;;;;;;;;;;28.21;38.66;100655.48;105277;1300;62099;-83
2022/07/15 05:06:46;;;;;;;;;;;;;;;28.21;38.83;100653.06;105222;1299;72539;-81
2022/07/15 05:09:11;;;;;;;;;;;;;;;28.22;38.83;100656.42;105244;1299;62074;-81
2022/07/15 05:11:37;;;;;;;;;;;;;;;28.23;38.89;100653.38;105222;1300;62184;-81
2022/07/15 05:14:02;;;;;;;;;;;;;;;28.24;38.77;100654.81;105238;1300;62178;-81
2022/07/15 05:16:28;;;;;;;;;;;;;;;28.24;38.67;100654.44;105224;1300;62198;-81
2022/07/15 05:18:53;;;;;;;;;;;;;;;28.25;38.89;100655.05;105207;1300;62169;-81
2022/07/15 05:21:19;;;;;;;;;;;;;;;28.25;39.09;100652.30;105255;1299;62126;-81
2022/07/15 05:23:44;;;;;;;;;;;;;;;28.26;39.02;100657.13;105206;1300;62180;-81
2022/07/15 05:26:11;;;;;;;;;;;;;;;28.27;39.02;100657.41;105261;1299;62211;-81
2022/07/15 05:28:38;;;;;;;;;;;;;;;28.27;39.26;100656.83;105176;1301;62183;-81
2022/07/15 05:31:04;;;;;;;;;;;;;;;28.29;39.17;100655.45;105199;1300;62042;-81
2022/07/15 05:33:30;;;;;;;;;;;;;;;28.29;39.31;100657.92;105217;1300;62051;-81
2022/07/15 05:35:55;;;;;;;;;;;;;;;28.30;39.27;100658.02;105277;1300;62048;-81
2022/07/15 05:38:21;;;;;;;;;;;;;;;28.30;39.41;100656.02;105221;1301;62069;-81
2022/07/15 05:40:46;;;;;;;;;;;;;;;28.31;39.51;100658.41;105064;1299;62193;-81
2022/07/15 05:43:12;;;;;;;;;;;;;;;28.31;39.36;100660.90;104936;1302;62204;-81
2022/07/15 05:45:37;;;;;;;;;;;;;;;28.32;39.32;100659.89;105204;1302;62122;-81
2022/07/15 05:48:03;;;;;;;;;;;;;;;28.33;39.31;100666.50;105132;1300;62093;-81
2022/07/15 05:50:28;;;;;;;;;;;;;;;28.34;39.35;100665.55;105203;1300;62100;-81
2022/07/15 05:52:54;;;;;;;;;;;;;;;28.35;39.46;100660.73;105217;1299;62102;-81
2022/07/15 05:55:20;;;;;;;;;;;;;;;28.35;39.50;100662.30;105141;1302;62687;-81
2022/07/15 05:57:45;;;;;;;;;;;;;;;28.36;39.46;100659.55;105254;1299;62033;-81
2022/07/15 06:00:12;;;;;;;;;;;;;;;28.37;39.37;100659.42;105260;1300;62102;-81
2022/07/15 06:02:37;;;;;;;;;;;;;;;28.38;39.33;100657.52;105226;1299;62177;-81
2022/07/15 06:05:03;;;;;;;;;;;;;;;28.38;39.22;100659.33;105211;1300;62049;-81
2022/07/15 06:07:28;;;;;;;;;;;;;;;28.38;39.20;100663.13;105108;1302;72285;-81
2022/07/15 06:09:54;;;;;;;;;;;;;;;28.38;39.51;100662.75;105242;1299;62069;-81
2022/07/15 06:12:19;;;;;;;;;;;;;;;28.38;39.43;100659.54;105141;1300;62093;-81
2022/07/15 06:14:45;;;;;;;;;;;;;;;28.37;39.54;100660.63;105010;1302;60115;-81
2022/07/15 06:17:10;;;;;;;;;;;;;;;28.38;39.37;100660.41;105204;1300;62136;-81
2022/07/15 06:19:36;;;;;;;;;;;;;;;28.38;39.36;100657.50;105180;1300;62082;-81
2022/07/15 06:22:01;;;;;;;;;;;;;;;28.38;39.39;100657.52;105144;1300;62967;-81
2022/07/15 06:24:27;;;;;;;;;;;;;;;28.38;39.38;100656.38;105119;1302;62219;-81
2022/07/15 06:26:52;;;;;;;;;;;;;;;28.38;39.05;100656.76;105219;1299;62044;-80
2022/07/15 06:29:17;;;;;;;;;;;;;;;28.38;39.08;100652.23;104359;1300;1121143;-81
2022/07/15 06:31:43;;;;;;;;;;;;;;;28.39;39.23;100654.35;105208;1299;62262;-81
2022/07/15 06:34:08;;;;;;;;;;;;;;;28.39;39.14;100657.77;105029;1302;62183;-81
2022/07/15 06:36:34;;;;;;;;;;;;;;;28.39;39.01;100656.31;105181;1303;62094;-81
2022/07/15 06:38:59;;;;;;;;;;;;;;;28.39;39.03;100652.83;105192;1300;61940;-81
2022/07/15 06:41:25;;;;;;;;;;;;;;;28.40;39.04;100653.35;105141;1300;73002;-81
2022/07/15 06:43:52;;;;;;;;;;;;;;;28.40;38.84;100651.64;105143;1301;62046;-81
2022/07/15 06:46:17;;;;;;;;;;;;;;;28.40;38.85;100653.27;105216;1300;62179;-81
2022/07/15 06:48:43;;;;;;;;;;;;;;;28.41;38.68;100653.23;105089;1300;62083;-81
2022/07/15 06:51:08;;;;;;;;;;;;;;;28.41;38.74;100652.69;105111;1300;62186;-81
2022/07/15 06:53:34;;;;;;;;;;;;;;;28.41;38.64;100650.85;105168;1300;62088;-81
2022/07/15 06:55:59;;;;;;;;;;;;;;;28.41;38.60;100649.02;105063;1301;62215;-81
2022/07/15 06:58:26;;;;;;;;;;;;;;;28.41;38.54;100648.66;105267;1299;62058;-81
2022/07/15 07:00:52;;;;;;;;;;;;;;;28.41;38.83;100650.46;105263;1299;62065;-81
2022/07/15 07:03:17;;;;;;;;;;;;;;;28.41;38.54;100653.88;105125;1301;62152;-81
2022/07/15 07:05:42;;;;;;;;;;;;;;;28.41;38.44;100653.38;105204;1299;62074;-81
2022/07/15 07:08:08;;;;;;;;;;;;;;;28.42;38.46;100652.59;105248;1300;62061;-81
2022/07/15 07:10:34;;;;;;;;;;;;;;;28.42;38.46;100649.34;105226;1300;62066;-81
2022/07/15 07:12:59;;;;;;;;;;;;;;;28.42;38.49;100648.95;105258;1300;62086;-81
2022/07/15 07:15:25;;;;;;;;;;;;;;;28.42;38.46;100647.67;105223;1299;62074;-81
2022/07/15 07:17:51;;;;;;;;;;;;;;;28.42;38.01;100648.17;105027;1300;62240;-81
2022/07/15 07:20:17;;;;;;;;;;;;;;;28.42;38.25;100652.52;105271;1300;62058;-81
2022/07/15 07:22:42;;;;;;;;;;;;;;;28.43;37.98;100647.20;105215;1300;62076;-81
2022/07/15 07:25:08;;;;;;;;;;;;;;;28.43;37.95;100648.06;105098;1299;62162;-81
2022/07/15 07:27:34;;;;;;;;;;;;;;;28.44;37.91;100645.66;104943;1300;72803;-81
2022/07/15 07:30:01;;;;;;;;;;;;;;;28.45;37.85;100647.39;104995;1300;62104;-81
2022/07/15 07:32:27;;;;;;;;;;;;;;;28.46;37.81;100645.45;104961;1300;62091;-81
2022/07/15 07:34:52;;;;;;;;;;;;;;;28.46;37.63;100646.55;105097;1300;62085;-81
2022/07/15 07:37:18;;;;;;;;;;;;;;;28.46;37.90;100642.91;105087;1300;62415;-82
2022/07/15 07:39:43;;;;;;;;;;;;;;;28.47;37.86;100647.58;105099;1300;62152;-81
2022/07/15 07:42:09;;;;;;;;;;;;;;;28.48;37.88;100646.72;105031;1300;62132;-81
2022/07/15 07:44:36;;;;;;;;;;;;;;;28.49;37.68;100647.54;105165;1300;62090;-82
2022/07/15 07:47:02;;;;;;;;;;;;;;;28.49;37.55;100652.36;105070;1300;62062;-81
2022/07/15 07:49:28;;;;;;;;;;;;;;;28.50;37.66;100649.21;105096;1300;62047;-81
2022/07/15 07:51:53;;;;;;;;;;;;;;;28.50;37.56;100651.73;104940;1300;62104;-81
2022/07/15 07:54:19;;;;;;;;;;;;;;;28.50;37.61;100650.27;104977;1300;62239;-81
2022/07/15 07:56:53;;;;;;;;;;;;;;;28.50;37.52;100651.52;105014;1300;62065;-81
2022/07/15 07:59:18;;;;;;;;;;;;;;;28.51;37.62;100648.70;104976;1300;62661;-81
2022/07/15 08:01:44;;;;;;;;;;;;;;;28.51;37.72;100648.86;105070;1299;62180;-81
2022/07/15 08:04:10;;;;;;;;;;;;;;;28.51;37.81;100647.58;105175;1300;62081;-81
2022/07/15 08:06:38;;;;;;;;;;;;;;;28.51;37.91;100642.56;105244;1299;62079;-81
2022/07/15 08:09:08;;;;;;;;;;;;;;;28.51;37.91;100646.16;105219;1299;62110;-81
2022/07/15 08:11:34;;;;;;;;;;;;;;;28.51;37.63;100639.45;105074;1299;62131;-81
2022/07/15 08:13:59;;;;;;;;;;;;;;;28.52;37.57;100634.34;105058;1300;62093;-81
2022/07/15 08:16:25;;;;;;;;;;;;;;;28.52;37.39;100634.65;105174;1299;62215;-81
2022/07/15 08:18:50;;;;;;;;;;;;;;;28.53;37.25;100634.98;105081;1300;62167;-81
2022/07/15 08:21:16;;;;;;;;;;;;;;;28.53;37.02;100629.30;105224;1299;61959;-81
2022/07/15 08:23:41;;;;;;;;;;;;;;;28.54;36.82;100630.09;105240;1299;62056;-81
2022/07/15 08:26:10;;;;;;;;;;;;;;;28.55;36.95;100627.27;105245;1300;62801;-81
2022/07/15 08:28:36;;;;;;;;;;;;;;;28.55;36.75;100627.06;105207;1300;61966;-81
2022/07/15 08:31:02;;;;;;;;;;;;;;;28.56;36.67;100627.38;105294;1300;62178;-81
2022/07/15 08:33:27;;;;;;;;;;;;;;;28.56;36.87;100622.28;105262;1299;62174;-81
2022/07/15 08:35:53;;;;;;;;;;;;;;;28.58;36.47;100624.84;105192;1300;63297;-81
2022/07/15 08:38:19;;;;;;;;;;;;;;;28.58;36.66;100621.00;105197;1300;62062;-81
2022/07/15 08:40:44;;;;;;;;;;;;;;;28.58;36.63;100622.96;105271;1300;62967;-81
2022/07/15 08:43:10;;;;;;;;;;;;;;;28.59;36.31;100620.02;105151;1302;61976;-81
2022/07/15 08:45:39;;;;;;;;;;;;;;;28.60;36.19;100616.59;105284;1300;62084;-81
2022/07/15 08:48:05;;;;;;;;;;;;;;;28.61;36.08;100616.17;105025;1302;76526;-81
2022/07/15 08:50:30;;;;;;;;;;;;;;;28.61;36.00;100613.98;104984;1303;62147;-81
2022/07/15 08:52:55;;;;;;;;;;;;;;;28.60;36.06;100609.33;105012;1300;62084;-81
2022/07/15 08:55:21;;;;;;;;;;;;;;;28.61;35.90;100608.20;105012;1299;62106;-81
2022/07/15 08:57:47;;;;;;;;;;;;;;;28.61;36.12;100602.21;105097;1299;63305;-81
2022/07/15 09:00:13;;;;;;;;;;;;;;;28.61;35.73;100597.86;105099;1299;76566;-81
2022/07/15 09:02:38;;;;;;;;;;;;;;;28.61;35.83;100592.96;105009;1299;64246;-81
2022/07/15 09:05:23;;;;;;;;;;;;;;;28.61;35.96;100591.36;105201;1300;62200;-81
2022/07/15 09:07:55;;;;;;;;;;;;;;;28.61;35.72;100593.01;105096;1300;72817;-81
2022/07/15 09:10:21;;;;;;;;;;;;;;;28.61;35.71;100594.63;105286;1298;75583;-80
2022/07/15 09:12:53;;;;;;;;;;;;;;;28.60;35.88;100588.90;105135;1300;61987;-81
2022/07/15 09:15:29;;;;;;;;;;;;;;;28.60;35.88;100585.65;105166;1300;61970;-81
2022/07/15 09:18:06;;;;;;;;;;;;;;;28.59;35.83;100583.20;105096;1299;73840;-81
2022/07/15 09:20:32;;;;;;;;;;;;;;;28.59;35.87;100580.55;105287;1299;74640;-81
2022/07/15 09:22:57;;;;;;;;;;;;;;;28.58;35.81;100574.59;105208;1300;62251;-81
2022/07/15 09:25:24;;;;;;;;;;;;;;;28.58;35.75;100574.26;105248;1300;62066;-81
2022/07/15 09:27:50;;;;;;;;;;;;;;;28.58;35.72;100570.15;105122;1300;62078;-81
2022/07/15 09:33:40;;;;;;;;;;;;;;;28.58;35.50;100571.63;104713;1305;63785;-83
2022/07/15 09:36:06;;;;;;;;;;;;;;;28.58;35.48;100572.48;104772;1304;62177;-83
2022/07/15 09:38:35;;;;;;;;;;;;;;;28.58;35.61;100567.27;104682;1306;62212;-83
2022/07/15 09:41:01;;;;;;;;;;;;;;;28.57;35.54;100567.64;104759;1305;76517;-83
2022/07/15 09:43:27;;;;;;;;;;;;;;;28.56;35.58;100565.57;104766;1305;62174;-83
2022/07/15 09:45:56;;;;;;;;;;;;;;;28.57;35.52;100565.88;104653;1306;62108;-83
2022/07/15 09:48:24;;;;;;;;;;;;;;;28.56;35.69;100559.62;104743;1305;73825;-84
2022/07/15 09:50:49;;;;;;;;;;;;;;;28.55;35.84;100558.27;104631;1306;75533;-83
2022/07/15 09:53:15;;;;;;;;;;;;;;;28.55;35.84;100552.36;104631;1305;62034;-83
2022/07/15 09:55:40;;;;;;;;;;;;;;;28.54;35.63;100554.96;104679;1305;62162;-83
2022/07/15 09:58:07;;;;;;;;;;;;;;;28.54;35.47;100553.91;104649;1305;62059;-83
2022/07/15 10:00:34;;;;;;;;;;;;;;;28.53;35.66;100551.23;104675;1305;62032;-83
2022/07/15 10:03:01;;;;;;;;;;;;;;;28.54;35.72;100551.41;104532;1307;62088;-83
2022/07/15 10:05:27;;;;;;;;;;;;;;;28.54;35.76;100550.31;104762;1305;62069;-83
2022/07/15 10:07:56;;;;;;;;;;;;;;;28.53;35.75;100549.90;104784;1305;62165;-83
2022/07/15 10:10:22;;;;;;;;;;;;;;;28.53;35.80;100546.98;104844;1300;76523;-83
2022/07/15 10:12:59;;;;;;;;;;;;;;;28.51;35.87;100540.77;105270;1300;61947;-83
2022/07/15 10:15:29;;;;;;;;;;;;;;;28.51;36.06;100539.95;105187;1302;62085;-83
2022/07/15 10:18:13;;;;;;;;;;;;;;;28.50;36.11;100540.91;105256;1299;71608;-83
2022/07/15 10:20:57;;;;;;;;;;;;;;;28.50;36.11;100538.26;105225;1299;76827;-83
2022/07/15 10:23:38;;;;;;;;;;;;;;;28.49;36.13;100529.97;105290;1299;61978;-83
2022/07/15 10:26:22;;;;;;;;;;;;;;;28.50;36.06;100526.51;105288;1299;62148;-83
2022/07/15 10:28:52;;;;;;;;;;;;;;;28.50;35.93;100525.41;105255;1299;73930;-83
2022/07/15 10:31:22;;;;;;;;;;;;;;;28.50;35.82;100521.95;105269;1299;75414;-83
2022/07/15 10:34:04;;;;;;;;;;;;;;;28.50;35.88;100522.84;105271;1299;62052;-83
2022/07/15 10:36:59;;;;;;;;;;;;;;;28.50;35.83;100517.59;105235;1299;62084;-81
2022/07/15 10:39:38;;;;;;;;;;;;;;;28.50;35.44;100518.13;104788;1305;72732;-83
2022/07/15 10:42:04;;;;;;;;;;;;;;;28.51;35.71;100511.55;104627;1306;76510;-83
2022/07/15 10:44:33;;;;;;;;;;;;;;;28.52;35.73;100511.82;104611;1306;59610;-81
2022/07/15 10:47:14;;;;;;;;;;;;;;;28.50;35.76;100504.15;104791;1305;62643;-81
2022/07/15 10:49:43;;;;;;;;;;;;;;;28.50;36.16;100501.64;104759;1306;72803;-82
2022/07/15 10:52:13;;;;;;;;;;;;;;;28.50;36.08;100498.00;104787;1305;76745;-81
2022/07/15 10:54:39;;;;;;;;;;;;;;;28.50;36.04;100501.46;104629;1306;62101;-81
2022/07/15 10:57:05;;;;;;;;;;;;;;;28.50;35.97;100498.38;104767;1305;62178;-81
2022/07/15 10:59:35;;;;;;;;;;;;;;;28.50;36.15;100495.15;104752;1305;62244;-81
2022/07/15 11:02:20;;;;;;;;;;;;;;;28.50;36.01;100496.27;104758;1305;76110;-81
2022/07/15 11:04:47;;;;;;;;;;;;;;;28.49;36.24;100492.55;104351;1313;61967;-81
2022/07/15 11:07:16;;;;;;;;;;;;;;;28.48;36.26;100491.52;104311;1313;62619;-81
2022/07/15 11:09:54;;;;;;;;;;;;;;;28.49;36.42;100490.42;104311;1313;72837;-81
2022/07/15 11:12:20;;;;;;;;;;;;;;;28.48;36.39;100490.81;104303;1313;75565;-81
2022/07/15 11:14:46;;;;;;;;;;;;;;;28.48;36.28;100488.27;104327;1313;62101;-81
2022/07/15 11:17:12;;;;;;;;;;;;;;;28.48;36.21;100489.75;104538;1308;62203;-81
2022/07/15 11:19:38;;;;;;;;;;;;;;;28.48;36.36;100493.17;104735;1305;62293;-81
2022/07/15 11:22:03;;;;;;;;;;;;;;;28.48;36.49;100491.24;104588;1305;62090;-81
2022/07/15 11:24:29;;;;;;;;;;;;;;;28.47;36.47;100482.77;104618;1305;62086;-81
2022/07/15 11:26:54;;;;;;;;;;;;;;;28.47;36.68;100484.39;104778;1305;62084;-81
2022/07/15 11:29:20;;;;;;;;;;;;;;;28.47;36.36;100480.46;104748;1305;62085;-81
2022/07/15 11:31:45;;;;;;;;;;;;;;;28.46;36.47;100478.71;104659;1305;62209;-81
2022/07/15 11:34:11;;;;;;;;;;;;;;;28.47;36.49;100477.41;104779;1306;62196;-81
2022/07/15 11:36:36;;;;;;;;;;;;;;;28.47;36.45;100480.66;104712;1306;62087;-81
2022/07/15 11:39:02;;;;;;;;;;;;;;;28.47;36.65;100477.71;104730;1305;62204;-81
2022/07/15 11:44:30;;;;;;;;;;;;;;;28.47;36.54;100476.14;105254;1299;72624;-81
2022/07/15 11:46:56;;;;;;;;;;;;;;;28.47;36.74;100480.66;105244;1298;76609;-81
2022/07/15 11:49:27;;;;;;;;;;;;;;;28.47;36.60;100473.91;105223;1300;62084;-81
2022/07/15 11:51:54;;;;;;;;;;;;;;;28.48;36.77;100473.16;105309;1300;62059;-81
2022/07/15 11:54:20;;;;;;;;;;;;;;;28.48;36.68;100471.90;105237;1299;73959;-81
2022/07/15 11:56:55;;;;;;;;;;;;;;;28.47;36.51;100469.36;105283;1299;62082;-81
2022/07/15 11:59:20;;;;;;;;;;;;;;;28.48;36.58;100465.34;105267;1300;62103;-81
2022/07/15 12:01:46;;;;;;;;;;;;;;;28.48;36.83;100468.00;105200;1300;62183;-81
2022/07/15 12:04:11;;;;;;;;;;;;;;;28.48;36.48;100461.70;105235;1300;62132;-81
2022/07/15 12:06:37;;;;;;;;;;;;;;;28.49;36.67;100462.70;105314;1299;62123;-81
2022/07/15 12:09:05;;;;;;;;;;;;;;;28.49;36.84;100460.33;105304;1299;62104;-81
2022/07/15 12:11:35;;;;;;;;;;;;;;;28.49;36.77;100456.32;105231;1300;62027;-81
2022/07/15 12:14:01;;;;;;;;;;;;;;;28.49;36.86;100455.58;105227;1299;62152;-81
2022/07/15 12:16:30;;;;;;;;;;;;;;;28.50;36.85;100453.48;105271;1299;73775;-81
2022/07/15 12:18:57;;;;;;;;;;;;;;;28.50;36.57;100448.42;105227;1299;76532;-81
2022/07/15 12:21:22;;;;;;;;;;;;;;;28.51;36.71;100445.48;105292;1299;62096;-81
2022/07/15 12:24:07;;;;;;;;;;;;;;;28.51;36.70;100445.84;105237;1300;60848;-81
2022/07/15 12:26:34;;;;;;;;;;;;;;;28.51;36.81;100452.45;105278;1299;73797;-81
2022/07/15 12:29:00;;;;;;;;;;;;;;;28.52;36.82;100451.30;105264;1299;62790;-81
2022/07/15 12:31:30;;;;;;;;;;;;;;;28.52;36.88;100446.25;105217;1299;62067;-81
2022/07/15 12:33:56;;;;;;;;;;;;;;;28.52;36.58;100450.36;105239;1299;62046;-81